Map

Track Data

SID SEASON NUMBER BASIN SUBBASIN NAME ISO_TIME NATURE LAT LON WMO_WIND WMO_PRES WMO_AGENCY TRACK_TYPE DIST2LAND LANDFALL IFLAG USA_AGENCY USA_ATCF_ID USA_LAT USA_LON USA_RECORD USA_STATUS USA_WIND USA_PRES USA_SSHS USA_R34_NE USA_R34_SE USA_R34_SW USA_R34_NW USA_R50_NE USA_R50_SE USA_R50_SW USA_R50_NW USA_R64_NE USA_R64_SE USA_R64_SW USA_R64_NW USA_POCI USA_ROCI USA_RMW USA_EYE TOKYO_LAT TOKYO_LON TOKYO_GRADE TOKYO_WIND TOKYO_PRES TOKYO_R50_DIR TOKYO_R50_LONG TOKYO_R50_SHORT TOKYO_R30_DIR TOKYO_R30_LONG TOKYO_R30_SHORT TOKYO_LAND CMA_LAT CMA_LON CMA_CAT CMA_WIND CMA_PRES HKO_LAT HKO_LON HKO_CAT HKO_WIND HKO_PRES NEWDELHI_LAT NEWDELHI_LON NEWDELHI_GRADE NEWDELHI_WIND NEWDELHI_PRES NEWDELHI_CI NEWDELHI_DP NEWDELHI_POCI REUNION_LAT REUNION_LON REUNION_TYPE REUNION_WIND REUNION_PRES REUNION_TNUM REUNION_CI REUNION_RMW REUNION_R34_NE REUNION_R34_SE REUNION_R34_SW REUNION_R34_NW REUNION_R50_NE REUNION_R50_SE REUNION_R50_SW REUNION_R50_NW REUNION_R64_NE REUNION_R64_SE REUNION_R64_SW REUNION_R64_NW BOM_LAT BOM_LON BOM_TYPE BOM_WIND BOM_PRES BOM_TNUM BOM_CI BOM_RMW BOM_R34_NE BOM_R34_SE BOM_R34_SW BOM_R34_NW BOM_R50_NE BOM_R50_SE BOM_R50_SW BOM_R50_NW BOM_R64_NE BOM_R64_SE BOM_R64_SW BOM_R64_NW BOM_ROCI BOM_POCI BOM_EYE BOM_POS_METHOD BOM_PRES_METHOD NADI_LAT NADI_LON NADI_CAT NADI_WIND NADI_PRES WELLINGTON_LAT WELLINGTON_LON WELLINGTON_WIND WELLINGTON_PRES DS824_LAT DS824_LON DS824_STAGE DS824_WIND DS824_PRES TD9636_LAT TD9636_LON TD9636_STAGE TD9636_WIND TD9636_PRES TD9635_LAT TD9635_LON TD9635_WIND TD9635_PRES TD9635_ROCI NEUMANN_LAT NEUMANN_LON NEUMANN_CLASS NEUMANN_WIND NEUMANN_PRES MLC_LAT MLC_LON MLC_CLASS MLC_WIND MLC_PRES USA_GUST BOM_GUST BOM_GUST_PER REUNION_GUST REUNION_GUST_PER USA_SEAHGT USA_SEARAD_NE USA_SEARAD_SE USA_SEARAD_SW USA_SEARAD_NW STORM_SPEED STORM_DIR
1969251N18333 1969 75 NA NA NOT_NAMED 1969-09-07 12:00:00 TS 18.0000 -27.5000 30 hurdat_atl main 1129 1129 O_____________ hurdat_atl AL151969 18.0000 -27.5000 TD 30 -1 11 254
1969251N18333 1969 75 NA NA NOT_NAMED 1969-09-07 15:00:00 TS 17.8528 -28.0502 main 1186 1183 P_____________ AL151969 17.8528 -28.0502 TD 30 -1 11 254
1969251N18333 1969 75 NA NA NOT_NAMED 1969-09-07 18:00:00 TS 17.7000 -28.6000 30 hurdat_atl main 1231 1231 O_____________ hurdat_atl AL151969 17.7000 -28.6000 TD 30 -1 11 253
1969251N18333 1969 75 NA NA NOT_NAMED 1969-09-07 21:00:00 TS 17.5423 -29.1500 main 1278 1278 P_____________ AL151969 17.5423 -29.1500 TD 30 -1 11 254
1969251N18333 1969 75 NA NA NOT_NAMED 1969-09-08 00:00:00 TS 17.4000 -29.7000 30 hurdat_atl main 1338 1338 O_____________ hurdat_atl AL151969 17.4000 -29.7000 TD 30 -1 11 257
1969251N18333 1969 75 NA NA NOT_NAMED 1969-09-08 03:00:00 TS 17.2923 -30.2424 main 1388 1388 P_____________ AL151969 17.2923 -30.2424 TD 30 -1 11 259
1969251N18333 1969 75 NA NA NOT_NAMED 1969-09-08 06:00:00 TS 17.2000 -30.8000 30 hurdat_atl main 1449 1449 O_____________ hurdat_atl AL151969 17.2000 -30.8000 TD 30 -1 11 260
1969251N18333 1969 75 NA NA NOT_NAMED 1969-09-08 09:00:00 TS 17.0998 -31.3849 main 1510 1510 P_____________ AL151969 17.0998 -31.3849 TD 30 -1 12 260
1969251N18333 1969 75 NA NA NOT_NAMED 1969-09-08 12:00:00 TS 17.0000 -32.0000 30 hurdat_atl main 1572 1572 O_____________ hurdat_atl AL151969 17.0000 -32.0000 TD 30 -1 12 260
1969251N18333 1969 75 NA NA NOT_NAMED 1969-09-08 15:00:00 TS 16.8997 -32.6274 main 1634 1634 P_____________ AL151969 16.8997 -32.6274 TD 30 -1 13 261
1969251N18333 1969 75 NA NA NOT_NAMED 1969-09-08 18:00:00 TS 16.8000 -33.3000 30 hurdat_atl main 1707 1707 O_____________ hurdat_atl AL151969 16.8000 -33.3000 TD 30 -1 14 261
1969251N18333 1969 75 NA NA NOT_NAMED 1969-09-08 21:00:00 TS 16.6923 -34.0275 main 1780 1780 P_____________ AL151969 16.6923 -34.0275 TD 27 -1 15 262
1969251N18333 1969 75 NA NA NOT_NAMED 1969-09-09 00:00:00 TS 16.6000 -34.8000 25 hurdat_atl main 1864 1864 O_____________ hurdat_atl AL151969 16.6000 -34.8000 TD 25 -1 15 264
1969251N18333 1969 75 NA NA NOT_NAMED 1969-09-09 03:00:00 TS 16.5348 -35.5925 main 1948 1948 P_____________ AL151969 16.5348 -35.5925 TD 25 -1 15 266
1969251N18333 1969 75 NA NA NOT_NAMED 1969-09-09 06:00:00 TS 16.5000 -36.4000 25 hurdat_atl main 2034 2034 O_____________ hurdat_atl AL151969 16.5000 -36.4000 TD 25 -1 15 268
1969251N18333 1969 75 NA NA NOT_NAMED 1969-09-09 09:00:00 TS 16.4921 -37.1924 main 2058 1994 P_____________ AL151969 16.4921 -37.1924 TD 25 -1 15 270
1969251N18333 1969 75 NA NA NOT_NAMED 1969-09-09 12:00:00 TS 16.5000 -38.0000 25 hurdat_atl main 1994 1931 O_____________ hurdat_atl AL151969 16.5000 -38.0000 TD 25 -1 16 270
1969251N18333 1969 75 NA NA NOT_NAMED 1969-09-09 15:00:00 TS 16.4997 -38.8350 main 1931 1863 P_____________ AL151969 16.4997 -38.8350 TD 25 -1 16 270
1969251N18333 1969 75 NA NA NOT_NAMED 1969-09-09 18:00:00 TS 16.5000 -39.7000 25 hurdat_atl main 1863 1805 O_____________ hurdat_atl AL151969 16.5000 -39.7000 TD 25 -1 17 270
1969251N18333 1969 75 NA NA NOT_NAMED 1969-09-09 21:00:00 TS 16.5008 -40.5925 main 1797 1742 P_____________ AL151969 16.5008 -40.5925 TD 25 -1 17 270
1969251N18333 1969 75 NA NA NOT_NAMED 1969-09-10 00:00:00 TS 16.5000 -41.5000 25 hurdat_atl main 1735 O_____________ hurdat_atl AL151969 16.5000 -41.5000 TD 25 -1 17 270

About IBTrACS Database

This database is a web-friendly format of International Best Track Archive for Climate Stewardship (IBTrACS), a global best track data archive curated by NOAA dating back to 1842.

Updated: 2022-11-16